createdAt,value
2019-04-26T00:03:18.829Z,99999
2019-04-26T00:08:41.664Z,100001
2019-04-26T00:14:05.032Z,100013
2019-04-26T00:19:27.760Z,99998
2019-04-26T00:24:50.507Z,99998
2019-04-26T00:30:14.834Z,99990
2019-04-26T00:35:46.768Z,99989
2019-04-26T00:41:00.675Z,99979
2019-04-26T00:46:23.433Z,99964
2019-04-26T00:51:46.546Z,99957
2019-04-26T00:57:09.312Z,99972
2019-04-26T01:02:33.048Z,99973
2019-04-26T01:07:55.822Z,99983
2019-04-26T01:13:18.649Z,99990
2019-04-26T01:18:42.373Z,99995
2019-04-26T01:24:05.122Z,99967
2019-04-26T01:29:28.034Z,99961
2019-04-26T01:34:50.507Z,99982
2019-04-26T01:40:13.250Z,99993
2019-04-26T01:45:36.019Z,99999
2019-04-26T01:50:58.855Z,100027
2019-04-26T01:56:22.210Z,100035
2019-04-26T02:01:45.421Z,100027
2019-04-26T02:07:08.223Z,100015
2019-04-26T02:12:31.042Z,100048
2019-04-26T02:17:53.798Z,100060
2019-04-26T02:23:16.556Z,100043
2019-04-26T02:28:39.302Z,100042
2019-04-26T02:34:02.063Z,100016
2019-04-26T02:39:26.303Z,100031
2019-04-26T02:44:48.683Z,100050
2019-04-26T02:50:11.384Z,100062
2019-04-26T02:55:38.380Z,100070
2019-04-26T03:00:57.907Z,100076
2019-04-26T03:06:24.886Z,100067
2019-04-26T03:11:48.612Z,100054
2019-04-26T03:17:11.388Z,100063
2019-04-26T03:22:35.596Z,100055
2019-04-26T03:27:57.865Z,100070
2019-04-26T03:33:20.766Z,100038
2019-04-26T03:38:43.540Z,100054
2019-04-26T03:44:06.125Z,100042
2019-04-26T03:49:28.881Z,100038
2019-04-26T03:54:52.637Z,100034
2019-04-26T04:00:15.404Z,100025
2019-04-26T04:05:40.041Z,100050
2019-04-26T04:11:02.759Z,100047
2019-04-26T04:16:25.608Z,100059
2019-04-26T04:21:48.410Z,100089
2019-04-26T04:27:11.238Z,100099
2019-04-26T04:32:33.939Z,100131
2019-04-26T04:38:08.297Z,100118
2019-04-26T04:43:22.267Z,100105
2019-04-26T04:48:46.415Z,100103
2019-04-26T04:54:08.605Z,100103
2019-04-26T04:59:32.243Z,100119
2019-04-26T05:04:54.959Z,100117
2019-04-26T05:10:17.770Z,100093
2019-04-26T05:15:41.229Z,100094
2019-04-26T05:21:04.075Z,100088
2019-04-26T05:26:26.834Z,100104
2019-04-26T05:31:50.028Z,100122
2019-04-26T05:37:12.386Z,100149
2019-04-26T05:42:35.136Z,100154
2019-04-26T05:48:07.908Z,100134
2019-04-26T05:53:21.602Z,100135
2019-04-26T05:58:44.301Z,100151
2019-04-26T06:04:07.135Z,100155
2019-04-26T06:09:30.014Z,100155
2019-04-26T06:14:54.644Z,100164
2019-04-26T06:20:22.958Z,100178
2019-04-26T06:25:41.004Z,100168
2019-04-26T06:31:03.901Z,100179
2019-04-26T06:36:27.682Z,100170
2019-04-26T06:41:50.429Z,100151
2019-04-26T06:47:14.286Z,100175
2019-04-26T06:52:36.980Z,100193
2019-04-26T06:58:00.976Z,100189
2019-04-26T07:03:22.643Z,100191
2019-04-26T07:08:56.576Z,100201
2019-04-26T07:14:09.189Z,100210
2019-04-26T07:19:31.837Z,100227
2019-04-26T07:24:55.418Z,100236
2019-04-26T07:30:18.192Z,100238
2019-04-26T07:35:40.935Z,100237
2019-04-26T07:41:03.658Z,100239
2019-04-26T07:46:26.375Z,100238
2019-04-26T07:51:49.164Z,100236
2019-04-26T07:57:12.830Z,100237
2019-04-26T08:02:34.661Z,100241
2019-04-26T08:07:57.330Z,100245
2019-04-26T08:13:20.061Z,100244
2019-04-26T08:18:43.569Z,100254
2019-04-26T08:24:06.392Z,100249
2019-04-26T08:29:29.800Z,100266
2019-04-26T08:34:52.836Z,100271
2019-04-26T08:40:22.945Z,100278
2019-04-26T08:45:40.476Z,100290
2019-04-26T08:51:03.717Z,100305
2019-04-26T08:56:27.391Z,100316
2019-04-26T09:01:50.060Z,100328
2019-04-26T09:07:12.714Z,100329
2019-04-26T09:12:35.382Z,100338
2019-04-26T09:17:58.064Z,100340
2019-04-26T09:23:21.760Z,100347
2019-04-26T09:28:45.243Z,100336
2019-04-26T09:34:10.351Z,100348
2019-04-26T09:39:32.043Z,100355
2019-04-26T09:44:56.914Z,100342
2019-04-26T09:50:18.391Z,100322
2019-04-26T09:55:41.064Z,100323
2019-04-26T10:01:06.043Z,100341
2019-04-26T10:06:29.633Z,100343
2019-04-26T10:11:50.665Z,100344
2019-04-26T10:17:15.535Z,100347
2019-04-26T10:22:36.812Z,100339
2019-04-26T10:27:59.559Z,100333
2019-04-26T10:33:22.191Z,100326
2019-04-26T10:38:44.869Z,100336
2019-04-26T10:44:07.584Z,100331
2019-04-26T10:49:30.212Z,100320
2019-04-26T10:54:52.923Z,100318
2019-04-26T11:00:17.933Z,100317
2019-04-26T11:05:38.270Z,100331
2019-04-26T11:11:00.903Z,100335
2019-04-26T11:16:23.749Z,100349
2019-04-26T11:21:46.481Z,100347
2019-04-26T11:27:09.820Z,100361
2019-04-26T11:32:33.082Z,100372
2019-04-26T11:37:56.953Z,100376
2019-04-26T11:43:19.431Z,100381
2019-04-26T11:48:40.897Z,100371
2019-04-26T11:54:03.606Z,100374
2019-04-26T11:59:26.980Z,100369
2019-04-26T12:04:53.668Z,100366
2019-04-26T12:10:12.879Z,100373
2019-04-26T12:15:38.924Z,100378
2019-04-26T12:21:00.963Z,100362
2019-04-26T12:26:24.137Z,100358
2019-04-26T12:31:50.905Z,100359
2019-04-26T12:37:19.701Z,100358
2019-04-26T12:42:37.317Z,100358
2019-04-26T12:48:01.085Z,100371
2019-04-26T12:53:26.559Z,100371
2019-04-26T12:58:49.887Z,100366
2019-04-26T13:04:11.141Z,100365
2019-04-26T13:09:33.874Z,100370
2019-04-26T13:14:56.561Z,100373
2019-04-26T13:20:19.213Z,100369
2019-04-26T13:25:42.954Z,100365
2019-04-26T13:31:05.631Z,100360
2019-04-26T13:36:28.993Z,100363
2019-04-26T13:42:01.804Z,100359
2019-04-26T13:47:14.620Z,100355
2019-04-26T13:52:37.354Z,100355
2019-04-26T13:58:00.028Z,100363
2019-04-26T14:03:22.752Z,100359
2019-04-26T14:08:46.388Z,100358
2019-04-26T14:14:10.717Z,100370
2019-04-26T14:19:33.339Z,100385
2019-04-26T14:24:56.899Z,100383
2019-04-26T14:30:18.639Z,100390
2019-04-26T14:35:42.093Z,100396
2019-04-26T14:41:05.844Z,100394
2019-04-26T14:46:29.347Z,100392
2019-04-26T14:51:55.915Z,100386
2019-04-26T14:57:19.835Z,100394
2019-04-26T15:02:41.505Z,100401
2019-04-26T15:08:03.658Z,100408
2019-04-26T15:13:26.615Z,100412
2019-04-26T15:18:50.288Z,100416
2019-04-26T15:24:12.942Z,100423
2019-04-26T15:29:35.610Z,100424
2019-04-26T15:34:58.753Z,100420
2019-04-26T15:40:22.585Z,100420
2019-04-26T15:45:45.058Z,100425
2019-04-26T15:51:07.683Z,100415
2019-04-26T15:56:32.418Z,100402
2019-04-26T16:01:56.211Z,100401
2019-04-26T16:07:25.684Z,100394
2019-04-26T16:12:40.264Z,100383
2019-04-26T16:18:04.150Z,100378
2019-04-26T16:23:38.345Z,100383
2019-04-26T16:28:50.195Z,100385
2019-04-26T16:34:14.202Z,100381
2019-04-26T16:39:38.768Z,100379
2019-04-26T16:45:03.778Z,100382
2019-04-26T16:50:31.142Z,100381
2019-04-26T16:55:52.125Z,100403
2019-04-26T17:01:14.651Z,100378
2019-04-26T17:06:34.342Z,100398
2019-04-26T17:11:57.931Z,100397
2019-04-26T17:17:22.285Z,100402
2019-04-26T17:22:51.614Z,100409
2019-04-26T17:28:06.932Z,100404
2019-04-26T17:33:32.596Z,100401
2019-04-26T17:38:53.743Z,100393
2019-04-26T17:44:20.284Z,100391
2019-04-26T17:49:42.181Z,100400
2019-04-26T17:55:02.661Z,100406
2019-04-26T18:00:28.398Z,100405
2019-04-26T18:05:56.926Z,100410
2019-04-26T18:11:24.679Z,100423
2019-04-26T18:16:43.364Z,100425
2019-04-26T18:22:06.282Z,100427
2019-04-26T18:27:34.332Z,100427
2019-04-26T18:32:53.766Z,100440
2019-04-26T18:38:16.765Z,100440
2019-04-26T18:43:40.106Z,100449
2019-04-26T18:49:04.396Z,100464
2019-04-26T18:54:25.491Z,100446
2019-04-26T18:59:51.007Z,100442
2019-04-26T19:05:12.538Z,100464
2019-04-26T19:10:34.313Z,100485
2019-04-26T19:15:56.262Z,100507
2019-04-26T19:21:18.961Z,100492
2019-04-26T19:26:44.041Z,100499
2019-04-26T19:32:05.282Z,100490
2019-04-26T19:37:30.351Z,100483
2019-04-26T19:42:57.102Z,100479
2019-04-26T19:48:20.323Z,100488
2019-04-26T19:53:39.151Z,100505
2019-04-26T19:59:03.058Z,100500
2019-04-26T20:04:30.363Z,100499
2019-04-26T20:09:49.756Z,100494
2019-04-26T20:15:25.327Z,100500
2019-04-26T20:20:37.283Z,100504
2019-04-26T20:26:00.819Z,100494
2019-04-26T20:31:23.696Z,100493
2019-04-26T20:36:47.712Z,100483
2019-04-26T20:42:11.865Z,100482
2019-04-26T20:47:32.741Z,100479
2019-04-26T20:53:00.523Z,100475
2019-04-26T20:58:19.045Z,100464
2019-04-26T21:03:42.698Z,100474
2019-04-26T21:09:06.415Z,100478
2019-04-26T21:14:27.969Z,100479
2019-04-26T21:19:54.764Z,100474
2019-04-26T21:25:15.267Z,100480
2019-04-26T21:30:41.606Z,100472
2019-04-26T21:36:05.802Z,100476
2019-04-26T21:41:25.274Z,100462
2019-04-26T21:46:49.466Z,100455
2019-04-26T21:52:13.615Z,100450
2019-04-26T21:57:35.661Z,100448
2019-04-26T22:02:58.582Z,100449
2019-04-26T22:08:24.480Z,100452
2019-04-26T22:13:45.015Z,100454
2019-04-26T22:19:07.920Z,100451
2019-04-26T22:24:29.764Z,100446
2019-04-26T22:29:53.355Z,100444
2019-04-26T22:35:19.905Z,100443
2019-04-26T22:40:39.732Z,100448
2019-04-26T22:46:02.889Z,100441
2019-04-26T22:51:28.484Z,100444
2019-04-26T22:56:49.028Z,100443
2019-04-26T23:02:13.527Z,100448
2019-04-26T23:07:35.382Z,100453
2019-04-26T23:13:02.191Z,100444
2019-04-26T23:18:21.733Z,100444
2019-04-26T23:23:44.380Z,100443
2019-04-26T23:29:08.113Z,100448
2019-04-26T23:34:33.658Z,100451
2019-04-26T23:39:56.190Z,100452
2019-04-26T23:45:19.672Z,100451
2019-04-26T23:50:42.948Z,100446
2019-04-26T23:56:05.217Z,100431
